Baltimore, Maryland
Traffic Map
Current Weather Conditions
Baltimore, Maryland
Few Clouds
Few Clouds
47°
Feels Like: 43°
Wind Chill: 43° Ceiling: Unl
Heat Index: 47° Visibility: 10mi
Dew Point: 16° Wind: 9mph
Humidity: 29% Direction: 340° (NNW)
Pressure: 30.44in Gusts: 0mph
Raw Report DataKBWI 162154Z 34008KT 10SM FEW250 08/M09 A3044 RMK AO2 SLP307 T00831089
Traffic Incident Summary
Active as of:
Severity:
Category:
InformationThere was an issue retrieving the traffic information for this location. Please try a different location or try again shortly.
Advertisements
At Last! Intellicast now available for iPhone and Android